createdAt,value
2022-08-28T00:01:32.633Z,12.20
2022-08-28T00:03:35.227Z,14.70
2022-08-28T00:05:39.597Z,15.13
2022-08-28T00:07:45.534Z,14.07
2022-08-28T00:09:49.183Z,13.43
2022-08-28T00:11:50.820Z,13.07
2022-08-28T00:13:52.587Z,13.10
2022-08-28T00:15:58.235Z,12.77
2022-08-28T00:18:00.966Z,13.93
2022-08-28T00:20:03.302Z,13.73
2022-08-28T00:22:04.910Z,13.88
2022-08-28T00:24:06.766Z,14.05
2022-08-28T00:26:08.358Z,14.02
2022-08-28T00:28:18.425Z,13.07
2022-08-28T00:30:29.863Z,12.30
2022-08-28T00:32:31.450Z,12.43
2022-08-28T00:34:33.783Z,13.40
2022-08-28T00:36:37.169Z,13.70
2022-08-28T00:38:38.708Z,14.63
2022-08-28T00:40:44.570Z,14.38
2022-08-28T00:42:47.209Z,13.68
2022-08-28T00:44:48.779Z,14.07
2022-08-28T00:46:53.586Z,12.88
2022-08-28T00:48:55.171Z,13.15
2022-08-28T00:51:15.963Z,12.65
2022-08-28T00:53:17.919Z,12.23
2022-08-28T00:55:22.565Z,13.05
2022-08-28T00:57:30.002Z,12.52
2022-08-28T00:59:31.562Z,18.60
2022-08-28T01:01:33.285Z,16.13
2022-08-28T01:03:36.641Z,13.52
2022-08-28T01:05:39.818Z,12.27
2022-08-28T01:07:42.041Z,15.20
2022-08-28T01:09:47.760Z,14.50
2022-08-28T01:11:52.775Z,13.02
2022-08-28T01:13:56.865Z,12.60
2022-08-28T01:16:04.067Z,12.95
2022-08-28T01:18:08.607Z,12.88
2022-08-28T01:20:14.694Z,12.80
2022-08-28T01:22:23.984Z,13.73
2022-08-28T01:24:25.867Z,14.13
2022-08-28T01:26:28.821Z,13.77
2022-08-28T01:28:30.384Z,14.98
2022-08-28T01:30:33.371Z,14.35
2022-08-28T01:32:38.626Z,14.60
2022-08-28T01:34:40.500Z,14.18
2022-08-28T01:36:42.899Z,14.57
2022-08-28T01:38:47.902Z,13.85
2022-08-28T01:40:53.402Z,13.85
2022-08-28T01:42:55.913Z,12.95
2022-08-28T01:44:57.521Z,14.25
2022-08-28T01:46:59.179Z,13.30
2022-08-28T01:49:00.805Z,13.32
2022-08-28T01:51:05.252Z,14.20
2022-08-28T01:53:07.942Z,14.75
2022-08-28T01:55:14.294Z,17.15
2022-08-28T01:57:15.828Z,15.27
2022-08-28T01:59:19.076Z,15.60
2022-08-28T02:01:21.804Z,14.57
2022-08-28T02:03:23.856Z,15.32
2022-08-28T02:05:28.339Z,14.73
2022-08-28T02:07:29.899Z,15.38
2022-08-28T02:09:32.018Z,15.85
2022-08-28T02:11:33.604Z,17.98
2022-08-28T02:13:36.784Z,16.38
2022-08-28T02:15:40.700Z,17.10
2022-08-28T02:17:42.330Z,17.63
2022-08-28T02:19:43.990Z,17.20
2022-08-28T02:21:45.544Z,17.25
2022-08-28T02:23:47.342Z,17.48
2022-08-28T02:25:49.896Z,17.55
2022-08-28T02:27:52.626Z,18.05
2022-08-28T02:29:55.520Z,17.42
2022-08-28T02:31:57.137Z,17.58
2022-08-28T02:33:58.726Z,16.15
2022-08-28T02:36:00.289Z,17.35
2022-08-28T02:38:01.872Z,17.73
2022-08-28T02:40:04.555Z,17.15
2022-08-28T02:42:06.749Z,18.02
2022-08-28T02:44:08.297Z,19.60
2022-08-28T02:46:10.155Z,20.15
2022-08-28T02:48:17.227Z,20.33
2022-08-28T02:50:20.085Z,19.55
2022-08-28T02:52:22.561Z,19.35
2022-08-28T02:54:26.389Z,19.85
2022-08-28T02:56:28.296Z,18.70
2022-08-28T02:58:32.320Z,17.50
2022-08-28T03:00:33.899Z,17.42
2022-08-28T03:02:36.655Z,18.05
2022-08-28T03:04:38.331Z,19.48
2022-08-28T03:06:39.877Z,18.10
2022-08-28T03:08:42.882Z,17.90
2022-08-28T03:10:44.440Z,16.58
2022-08-28T03:12:48.189Z,18.35
2022-08-28T03:14:51.690Z,17.60
2022-08-28T03:16:53.402Z,16.85
2022-08-28T03:18:55.021Z,19.35
2022-08-28T03:20:57.082Z,18.60
2022-08-28T03:23:17.039Z,17.80
2022-08-28T03:27:20.157Z,18.70
2022-08-28T03:29:21.747Z,22.33
2022-08-28T03:31:25.340Z,21.23
2022-08-28T03:33:27.481Z,21.02
2022-08-28T03:35:29.205Z,20.92
2022-08-28T03:37:31.399Z,22.20
2022-08-28T03:39:32.954Z,25.02
2022-08-28T03:41:34.573Z,22.23
2022-08-28T03:43:36.135Z,19.10
2022-08-28T03:45:38.393Z,19.75
2022-08-28T03:47:41.903Z,20.00
2022-08-28T03:49:45.462Z,22.15
2022-08-28T03:51:47.192Z,20.65
2022-08-28T03:53:49.316Z,18.77
2022-08-28T03:55:51.308Z,18.35
2022-08-28T03:57:53.188Z,18.70
2022-08-28T03:59:54.794Z,17.85
2022-08-28T04:01:56.351Z,17.95
2022-08-28T04:03:58.136Z,17.27
2022-08-28T04:05:59.774Z,16.50
2022-08-28T04:08:02.957Z,17.40
2022-08-28T04:10:04.965Z,18.08
2022-08-28T04:12:08.376Z,18.83
2022-08-28T04:14:10.592Z,18.40
2022-08-28T04:16:14.060Z,15.23
2022-08-28T04:18:15.850Z,13.68
2022-08-28T04:20:17.636Z,13.02
2022-08-28T04:22:19.222Z,14.20
2022-08-28T04:24:20.867Z,16.58
2022-08-28T04:26:24.213Z,17.00
2022-08-28T04:28:26.011Z,17.55
2022-08-28T04:30:27.583Z,16.35
2022-08-28T04:32:29.146Z,17.00
2022-08-28T04:34:30.727Z,14.80
2022-08-28T04:36:33.817Z,14.43
2022-08-28T04:38:38.332Z,13.98
2022-08-28T04:40:43.259Z,14.68
2022-08-28T04:42:45.247Z,14.48
2022-08-28T04:44:46.893Z,15.48
2022-08-28T04:46:48.464Z,13.75
2022-08-28T04:48:50.166Z,14.57
2022-08-28T04:50:51.768Z,13.13
2022-08-28T04:52:53.836Z,13.52
2022-08-28T04:54:55.849Z,13.65
2022-08-28T04:56:57.410Z,11.73
2022-08-28T04:59:00.679Z,10.40
2022-08-28T05:01:12.781Z,10.45
2022-08-28T05:03:16.414Z,9.43
2022-08-28T05:05:19.146Z,9.38
2022-08-28T05:07:23.431Z,9.60
2022-08-28T05:09:25.081Z,8.38
2022-08-28T05:11:33.519Z,9.27
2022-08-28T05:13:36.308Z,9.07
2022-08-28T05:15:42.501Z,9.90
2022-08-28T05:17:44.185Z,11.13
2022-08-28T05:19:45.808Z,11.50
2022-08-28T05:21:47.983Z,11.57
2022-08-28T05:23:51.412Z,11.75
2022-08-28T05:25:53.526Z,12.18
2022-08-28T05:27:55.542Z,12.73
2022-08-28T05:30:01.602Z,12.05
2022-08-28T05:32:04.153Z,12.05
2022-08-28T05:34:06.912Z,12.68
2022-08-28T05:36:09.067Z,12.50
2022-08-28T05:38:11.737Z,11.88
2022-08-28T05:40:13.640Z,12.25
2022-08-28T05:42:15.235Z,10.70
2022-08-28T05:44:17.788Z,10.68
2022-08-28T05:46:20.749Z,10.70
2022-08-28T05:48:22.329Z,10.80
2022-08-28T05:50:23.910Z,10.52
2022-08-28T05:52:25.881Z,10.40
2022-08-28T05:54:29.083Z,10.95
2022-08-28T05:56:34.068Z,11.10
2022-08-28T05:58:35.740Z,11.07
2022-08-28T06:00:37.305Z,11.18
2022-08-28T06:02:39.541Z,11.00
2022-08-28T06:04:41.136Z,10.60
2022-08-28T06:06:42.974Z,11.18
2022-08-28T06:08:58.308Z,10.23
2022-08-28T06:11:03.747Z,10.63
2022-08-28T06:13:05.710Z,11.73
2022-08-28T06:15:08.673Z,10.95
2022-08-28T06:17:10.256Z,11.00
2022-08-28T06:19:12.518Z,9.98
2022-08-28T06:21:14.268Z,9.77
2022-08-28T06:23:24.235Z,9.20
2022-08-28T06:25:26.005Z,9.95
2022-08-28T06:27:27.590Z,9.23
2022-08-28T06:29:29.561Z,9.60
2022-08-28T06:31:33.383Z,9.32
2022-08-28T06:33:35.455Z,6.80
2022-08-28T06:35:44.064Z,6.65
2022-08-28T06:37:45.910Z,6.43
2022-08-28T06:39:47.444Z,7.20
2022-08-28T06:41:49.145Z,6.63
2022-08-28T06:43:50.719Z,6.47
2022-08-28T06:45:54.616Z,6.20
2022-08-28T06:47:56.257Z,5.70
2022-08-28T06:49:58.360Z,5.70
2022-08-28T06:52:00.015Z,6.35
2022-08-28T06:54:01.998Z,5.28
2022-08-28T06:56:25.549Z,5.00
2022-08-28T06:58:29.216Z,5.70
2022-08-28T07:00:31.130Z,6.35
2022-08-28T07:02:32.735Z,5.30
2022-08-28T07:04:34.380Z,4.80
2022-08-28T07:06:41.344Z,5.20
2022-08-28T07:08:43.906Z,5.50
2022-08-28T07:10:45.754Z,5.07
2022-08-28T07:12:50.249Z,5.13
2022-08-28T07:14:51.796Z,4.43
2022-08-28T07:16:53.351Z,4.50
2022-08-28T07:18:54.931Z,5.00
2022-08-28T07:20:57.732Z,4.68
2022-08-28T07:22:59.781Z,4.57
2022-08-28T07:25:01.456Z,4.22
2022-08-28T07:27:03.087Z,5.13
2022-08-28T07:29:10.016Z,4.15
2022-08-28T07:31:19.209Z,4.80
2022-08-28T07:33:20.827Z,4.50
2022-08-28T07:35:22.735Z,4.38
2022-08-28T07:37:24.347Z,5.10
2022-08-28T07:39:25.878Z,4.32
2022-08-28T07:41:30.420Z,5.03
2022-08-28T07:43:50.618Z,4.95
2022-08-28T07:46:03.899Z,4.97
2022-08-28T07:48:11.933Z,4.50
2022-08-28T07:50:15.231Z,6.20
2022-08-28T07:52:16.823Z,4.18
2022-08-28T07:54:18.474Z,4.55
2022-08-28T07:56:20.945Z,5.25
2022-08-28T07:58:25.449Z,5.10
2022-08-28T08:00:27.049Z,5.65
2022-08-28T08:02:30.037Z,5.70
2022-08-28T08:04:31.633Z,5.50
2022-08-28T08:06:34.609Z,5.88
2022-08-28T08:08:37.405Z,5.82
2022-08-28T08:10:38.957Z,6.70
2022-08-28T08:12:42.781Z,5.50
2022-08-28T08:14:44.615Z,5.78
2022-08-28T08:16:47.543Z,5.15
2022-08-28T08:18:49.619Z,5.15
2022-08-28T08:20:51.867Z,4.85
2022-08-28T08:22:53.430Z,4.90
2022-08-28T08:24:55.340Z,4.72
2022-08-28T08:27:00.906Z,5.53
2022-08-28T08:29:02.657Z,5.07
2022-08-28T08:31:18.278Z,5.50
2022-08-28T08:33:20.311Z,5.05
2022-08-28T08:35:21.885Z,5.00
2022-08-28T08:37:23.487Z,4.30
2022-08-28T08:39:25.126Z,4.05
2022-08-28T08:41:48.457Z,3.40
2022-08-28T08:43:57.807Z,3.50
2022-08-28T08:45:59.395Z,22.60
2022-08-28T08:48:01.325Z,6.60
2022-08-28T08:50:11.370Z,4.88
2022-08-28T08:52:20.076Z,7.60
2022-08-28T08:54:21.848Z,5.80
2022-08-28T08:56:24.008Z,4.20
2022-08-28T08:58:49.013Z,4.20
2022-08-28T09:00:58.498Z,5.75
2022-08-28T09:05:22.515Z,4.57
2022-08-28T09:07:32.706Z,3.90
2022-08-28T09:09:42.126Z,5.03
2022-08-28T09:12:03.100Z,5.55
2022-08-28T09:14:13.478Z,4.95
2022-08-28T09:16:22.986Z,4.65
2022-08-28T09:20:33.163Z,4.65
2022-08-28T09:22:35.079Z,5.43
2022-08-28T09:24:39.557Z,5.30
2022-08-28T09:26:42.543Z,5.90
2022-08-28T09:28:50.763Z,6.53
2022-08-28T09:31:06.371Z,7.47
2022-08-28T09:33:07.985Z,7.90
2022-08-28T09:35:19.012Z,6.40
2022-08-28T09:37:26.671Z,6.53
2022-08-28T09:39:29.873Z,5.15
2022-08-28T09:41:50.628Z,5.10
2022-08-28T09:43:52.557Z,5.03
2022-08-28T09:46:07.501Z,5.40
2022-08-28T09:48:21.611Z,5.00
2022-08-28T09:50:37.512Z,4.10
2022-08-28T09:52:39.105Z,4.93
2022-08-28T09:54:42.654Z,4.70
2022-08-28T09:56:45.825Z,5.13
2022-08-28T09:58:52.248Z,5.22
2022-08-28T10:01:18.432Z,4.63
2022-08-28T10:03:28.691Z,5.05
2022-08-28T10:05:45.977Z,4.63
2022-08-28T10:07:53.039Z,4.85
2022-08-28T10:10:10.141Z,4.90
2022-08-28T10:12:11.616Z,4.85
2022-08-28T10:14:31.989Z,4.57
2022-08-28T10:16:47.149Z,4.85
2022-08-28T10:19:03.048Z,5.05
2022-08-28T10:21:08.520Z,5.13
2022-08-28T10:23:21.904Z,5.28
2022-08-28T10:25:49.661Z,5.30
2022-08-28T10:28:14.532Z,5.60
2022-08-28T10:30:21.659Z,5.80
2022-08-28T10:32:38.662Z,5.60
2022-08-28T10:34:47.287Z,5.63
2022-08-28T10:37:02.623Z,5.13
2022-08-28T10:39:21.000Z,5.97
2022-08-28T10:41:26.277Z,5.35
2022-08-28T10:43:48.614Z,5.07
2022-08-28T10:45:51.787Z,5.78
2022-08-28T10:47:58.268Z,5.30
2022-08-28T10:50:05.714Z,5.70
2022-08-28T10:52:11.876Z,6.55
2022-08-28T10:54:28.211Z,5.80
2022-08-28T10:56:45.238Z,5.32
2022-08-28T10:59:01.802Z,5.50
2022-08-28T11:01:12.262Z,5.50
2022-08-28T11:03:33.443Z,5.10
2022-08-28T11:05:53.352Z,5.40
2022-08-28T11:07:58.827Z,5.30
2022-08-28T11:10:21.182Z,5.22
2022-08-28T11:12:23.587Z,5.78
2022-08-28T11:14:33.840Z,6.03
2022-08-28T11:16:47.401Z,5.75
2022-08-28T11:19:23.203Z,5.72
2022-08-28T11:21:30.319Z,6.07
2022-08-28T11:24:00.294Z,5.90
2022-08-28T11:26:06.473Z,5.93
2022-08-28T11:28:25.841Z,5.75
2022-08-28T11:30:31.635Z,5.70
2022-08-28T11:32:33.350Z,6.30
2022-08-28T11:34:57.659Z,5.38
2022-08-28T11:37:01.327Z,5.43
2022-08-28T11:39:15.261Z,5.72
2022-08-28T11:41:21.727Z,6.50
2022-08-28T11:43:23.685Z,5.38
2022-08-28T11:45:48.164Z,6.70
2022-08-28T11:47:56.801Z,7.55
2022-08-28T11:50:05.127Z,5.90
2022-08-28T11:52:24.677Z,5.38
2022-08-28T11:57:08.534Z,5.80
2022-08-28T11:59:24.898Z,5.43
2022-08-28T12:01:36.905Z,5.72
2022-08-28T12:03:55.398Z,5.63
2022-08-28T12:05:58.641Z,5.28
2022-08-28T12:08:02.570Z,5.07
2022-08-28T12:10:27.648Z,5.50
2022-08-28T12:12:44.717Z,6.90
2022-08-28T12:14:47.656Z,5.22
2022-08-28T12:16:58.516Z,5.10
2022-08-28T12:19:02.255Z,5.50
2022-08-28T12:21:07.095Z,6.15
2022-08-28T12:23:23.993Z,6.03
2022-08-28T12:25:40.945Z,5.70
2022-08-28T12:27:42.954Z,5.40
2022-08-28T12:29:50.683Z,6.70
2022-08-28T12:32:13.650Z,5.28
2022-08-28T12:34:25.964Z,6.13
2022-08-28T12:36:28.786Z,6.85
2022-08-28T12:38:31.938Z,6.38
2022-08-28T12:40:33.520Z,6.57
2022-08-28T12:42:38.707Z,7.03
2022-08-28T12:44:40.264Z,7.13
2022-08-28T12:46:45.691Z,6.95
2022-08-28T12:48:56.296Z,7.50
2022-08-28T12:51:03.034Z,7.28
2022-08-28T12:53:10.517Z,8.48
2022-08-28T12:55:12.092Z,9.00
2022-08-28T12:57:18.612Z,7.60
2022-08-28T12:59:36.258Z,10.52
2022-08-28T13:01:39.054Z,12.55
2022-08-28T13:03:48.078Z,14.48
2022-08-28T13:05:58.494Z,12.80
2022-08-28T13:08:03.856Z,16.02
2022-08-28T13:10:29.979Z,14.27
2022-08-28T13:12:54.671Z,11.35
2022-08-28T13:14:58.919Z,11.77
2022-08-28T13:17:00.665Z,13.43
2022-08-28T13:19:05.250Z,11.30
2022-08-28T13:21:12.693Z,15.98
2022-08-28T13:23:29.548Z,21.25
2022-08-28T13:25:34.833Z,20.25
2022-08-28T13:27:38.453Z,17.88
2022-08-28T13:30:02.634Z,14.00
2022-08-28T13:32:10.253Z,13.15
2022-08-28T13:34:36.256Z,13.05
2022-08-28T13:36:42.086Z,9.30
2022-08-28T13:38:44.183Z,0.38
2022-08-28T13:40:58.493Z,0.05
2022-08-28T13:43:03.882Z,0.20
2022-08-28T13:45:06.406Z,0.40
2022-08-28T13:47:07.988Z,0.28
2022-08-28T13:49:09.517Z,0.57
2022-08-28T13:51:14.293Z,0.45
2022-08-28T13:53:22.587Z,0.10
2022-08-28T13:55:24.294Z,0.43
2022-08-28T13:57:27.926Z,0.52
2022-08-28T13:59:30.718Z,0.10
2022-08-28T14:01:51.939Z,0.00
2022-08-28T14:03:53.618Z,0.30
2022-08-28T14:05:55.233Z,0.08
2022-08-28T14:07:56.818Z,0.25
2022-08-28T14:09:58.482Z,0.20
2022-08-28T14:12:00.826Z,0.00
2022-08-28T14:14:03.366Z,0.70
2022-08-28T14:16:06.381Z,0.70
2022-08-28T14:18:07.970Z,0.10
2022-08-28T14:20:09.915Z,0.15
2022-08-28T14:22:11.488Z,0.25
2022-08-28T14:24:13.320Z,0.00
2022-08-28T14:26:14.870Z,1.05
2022-08-28T14:28:17.089Z,0.28
2022-08-28T14:30:19.235Z,0.08
2022-08-28T14:32:21.311Z,0.05
2022-08-28T14:34:23.141Z,0.20
2022-08-28T14:36:26.914Z,0.03
2022-08-28T14:38:28.458Z,0.10
2022-08-28T14:40:30.175Z,1.20
2022-08-28T14:42:31.949Z,0.20
2022-08-28T14:44:33.746Z,0.00
2022-08-28T14:46:36.978Z,0.00
2022-08-28T14:48:38.537Z,0.30
2022-08-28T14:50:42.049Z,0.00
2022-08-28T14:52:43.622Z,0.40
2022-08-28T14:54:45.557Z,0.05
2022-08-28T14:56:47.757Z,0.52
2022-08-28T14:58:49.388Z,1.15
2022-08-28T15:00:51.204Z,0.50
2022-08-28T15:02:55.354Z,0.32
2022-08-28T15:05:01.528Z,1.27
2022-08-28T15:07:06.503Z,2.42
2022-08-28T15:09:09.685Z,0.50
2022-08-28T15:11:18.620Z,0.17
2022-08-28T15:13:20.443Z,0.50
2022-08-28T15:15:23.859Z,0.05
2022-08-28T15:17:33.676Z,0.10
2022-08-28T15:19:36.372Z,0.03
2022-08-28T15:21:41.452Z,0.30
2022-08-28T15:23:43.389Z,0.25
2022-08-28T15:25:44.945Z,0.35
2022-08-28T15:27:46.547Z,0.43
2022-08-28T15:29:48.159Z,0.38
2022-08-28T15:31:50.750Z,0.55
2022-08-28T15:33:52.677Z,0.38
2022-08-28T15:35:57.390Z,0.20
2022-08-28T15:37:58.945Z,0.10
2022-08-28T15:40:20.913Z,0.75
2022-08-28T15:42:23.322Z,4.57
2022-08-28T15:44:25.018Z,0.40
2022-08-28T15:46:29.190Z,0.88
2022-08-28T15:48:32.072Z,0.08
2022-08-28T15:50:35.531Z,0.17
2022-08-28T15:52:38.693Z,0.03
2022-08-28T15:54:40.451Z,0.00
2022-08-28T15:56:42.082Z,0.15
2022-08-28T15:58:44.505Z,0.00
2022-08-28T16:00:46.572Z,0.45
2022-08-28T16:02:48.245Z,0.88
2022-08-28T16:04:50.273Z,0.68
2022-08-28T16:06:58.565Z,0.85
2022-08-28T16:09:03.530Z,0.30
2022-08-28T16:11:05.304Z,1.02
2022-08-28T16:13:07.005Z,0.43
2022-08-28T16:15:09.408Z,0.25
2022-08-28T16:17:11.561Z,0.17
2022-08-28T16:19:13.267Z,0.32
2022-08-28T16:21:15.147Z,0.60
2022-08-28T16:23:17.174Z,0.75
2022-08-28T16:25:18.861Z,0.77
2022-08-28T16:27:21.412Z,0.30
2022-08-28T16:29:23.033Z,0.22
2022-08-28T16:31:25.366Z,0.25
2022-08-28T16:33:28.156Z,0.20
2022-08-28T16:35:29.806Z,0.10
2022-08-28T16:37:37.715Z,0.30
2022-08-28T16:39:41.876Z,0.82
2022-08-28T16:41:49.646Z,1.08
2022-08-28T16:43:52.118Z,0.60
2022-08-28T16:45:54.033Z,0.40
2022-08-28T16:47:55.696Z,0.00
2022-08-28T16:50:01.878Z,0.40
2022-08-28T16:52:03.592Z,0.85
2022-08-28T16:54:05.301Z,0.20
2022-08-28T16:56:08.996Z,0.40
2022-08-28T16:58:14.979Z,0.55
2022-08-28T17:00:18.981Z,1.65
2022-08-28T17:02:26.300Z,0.35
2022-08-28T17:04:28.322Z,0.30
2022-08-28T17:06:31.740Z,0.88
2022-08-28T17:08:33.328Z,1.23
2022-08-28T17:10:35.645Z,0.77
2022-08-28T17:12:37.282Z,0.15
2022-08-28T17:14:39.274Z,0.50
2022-08-28T17:16:40.910Z,0.35
2022-08-28T17:18:48.335Z,0.63
2022-08-28T17:21:12.505Z,1.02
2022-08-28T17:23:15.210Z,0.30
2022-08-28T17:25:16.789Z,0.00
2022-08-28T17:27:22.605Z,0.70
2022-08-28T17:29:24.957Z,0.32
2022-08-28T17:31:26.619Z,0.45
2022-08-28T17:33:28.297Z,0.95
2022-08-28T17:35:29.890Z,0.08
2022-08-28T17:37:31.847Z,0.17
2022-08-28T17:39:33.488Z,1.00
2022-08-28T17:41:35.520Z,0.05
2022-08-28T17:43:38.327Z,1.17
2022-08-28T17:45:39.895Z,0.57
2022-08-28T17:47:42.223Z,0.10
2022-08-28T17:49:44.554Z,0.15
2022-08-28T17:51:46.130Z,0.85
2022-08-28T17:53:47.735Z,0.13
2022-08-28T17:55:49.481Z,0.28
2022-08-28T17:57:51.043Z,0.82
2022-08-28T17:59:52.653Z,0.00
2022-08-28T18:01:54.454Z,0.15
2022-08-28T18:03:56.127Z,0.17
2022-08-28T18:05:58.880Z,0.45
2022-08-28T18:08:00.499Z,0.80
2022-08-28T18:10:02.175Z,0.20
2022-08-28T18:12:04.190Z,0.30
2022-08-28T18:14:06.840Z,0.80
2022-08-28T18:16:09.079Z,0.20
2022-08-28T18:18:13.462Z,0.08
2022-08-28T18:20:15.192Z,1.15
2022-08-28T18:22:16.857Z,0.03
2022-08-28T18:24:18.451Z,0.10
2022-08-28T18:26:20.251Z,0.30
2022-08-28T18:28:23.964Z,0.30
2022-08-28T18:30:25.752Z,0.00
2022-08-28T18:32:27.333Z,0.17
2022-08-28T18:34:30.587Z,0.88
2022-08-28T18:36:32.225Z,0.35
2022-08-28T18:38:35.671Z,0.13
2022-08-28T18:40:37.514Z,0.00
2022-08-28T18:42:40.043Z,0.05
2022-08-28T18:44:41.618Z,1.20
2022-08-28T18:46:44.040Z,0.35
2022-08-28T18:48:45.853Z,0.15
2022-08-28T18:50:48.397Z,0.30
2022-08-28T18:52:50.540Z,0.10
2022-08-28T18:54:52.365Z,0.38
2022-08-28T18:57:04.206Z,0.40
2022-08-28T18:59:06.824Z,0.00
2022-08-28T19:01:09.412Z,0.00
2022-08-28T19:03:11.383Z,0.10
2022-08-28T19:05:13.518Z,0.08
2022-08-28T19:07:15.146Z,0.05
2022-08-28T19:09:20.505Z,0.68
2022-08-28T19:11:22.698Z,0.10
2022-08-28T19:13:24.256Z,0.73
2022-08-28T19:15:25.788Z,0.00
2022-08-28T19:17:27.862Z,0.13
2022-08-28T19:19:33.100Z,0.13
2022-08-28T19:21:35.258Z,0.08
2022-08-28T19:23:38.486Z,0.70
2022-08-28T19:25:42.430Z,0.40
2022-08-28T19:27:44.261Z,1.20
2022-08-28T19:29:45.818Z,0.32
2022-08-28T19:31:47.400Z,0.32
2022-08-28T19:33:49.520Z,0.00
2022-08-28T19:35:51.829Z,0.40
2022-08-28T19:37:53.506Z,0.00
2022-08-28T19:39:56.179Z,0.13
2022-08-28T19:41:58.658Z,0.30
2022-08-28T19:44:00.272Z,0.05
2022-08-28T19:46:01.952Z,0.47
2022-08-28T19:48:03.803Z,0.40
2022-08-28T19:50:08.420Z,0.43
2022-08-28T19:52:10.029Z,0.43
2022-08-28T19:54:14.177Z,0.20
2022-08-28T19:56:16.058Z,0.00
2022-08-28T19:58:17.633Z,0.00
2022-08-28T20:00:23.283Z,0.30
2022-08-28T20:02:24.947Z,1.33
2022-08-28T20:04:26.546Z,0.20
2022-08-28T20:06:30.316Z,0.65
2022-08-28T20:08:31.986Z,0.65
2022-08-28T20:10:33.646Z,0.15
2022-08-28T20:12:35.779Z,0.10
2022-08-28T20:14:41.452Z,0.45
2022-08-28T20:16:44.705Z,1.00
2022-08-28T20:18:46.233Z,0.28
2022-08-28T20:20:49.408Z,1.17
2022-08-28T20:22:53.886Z,0.82
2022-08-28T20:24:55.828Z,1.23
2022-08-28T20:26:57.449Z,0.80
2022-08-28T20:28:59.081Z,3.15
2022-08-28T20:31:01.408Z,0.52
2022-08-28T20:33:03.010Z,0.63
2022-08-28T20:35:09.039Z,1.17
2022-08-28T20:37:11.394Z,0.65
2022-08-28T20:39:13.181Z,0.95
2022-08-28T20:41:18.363Z,0.03
2022-08-28T20:43:19.892Z,0.05
2022-08-28T20:45:22.112Z,0.95
2022-08-28T20:47:23.758Z,1.15
2022-08-28T20:49:25.332Z,0.88
2022-08-28T20:51:45.577Z,0.85
2022-08-28T20:53:47.157Z,0.63
2022-08-28T20:55:49.060Z,3.08
2022-08-28T20:57:51.110Z,0.98
2022-08-28T20:59:54.105Z,0.68
2022-08-28T21:02:00.550Z,1.05
2022-08-28T21:04:02.570Z,0.55
2022-08-28T21:06:04.310Z,1.10
2022-08-28T21:08:07.417Z,0.63
2022-08-28T21:10:14.092Z,0.75
2022-08-28T21:12:16.668Z,0.80
2022-08-28T21:14:19.041Z,0.68
2022-08-28T21:16:20.680Z,0.20
2022-08-28T21:18:22.354Z,0.60
2022-08-28T21:20:26.319Z,0.63
2022-08-28T21:22:31.556Z,1.08
2022-08-28T21:24:33.200Z,0.55
2022-08-28T21:26:37.308Z,0.65
2022-08-28T21:28:39.323Z,0.17
2022-08-28T21:30:41.621Z,0.32
2022-08-28T21:32:43.875Z,0.35
2022-08-28T21:34:45.431Z,0.55
2022-08-28T21:36:50.588Z,1.38
2022-08-28T21:38:52.915Z,2.08
2022-08-28T21:40:54.523Z,0.68
2022-08-28T21:42:56.103Z,0.40
2022-08-28T21:44:57.725Z,0.55
2022-08-28T21:47:00.540Z,1.20
2022-08-28T21:49:02.162Z,0.63
2022-08-28T21:51:13.074Z,0.65
2022-08-28T21:53:14.624Z,0.20
2022-08-28T21:55:17.519Z,1.75
2022-08-28T21:57:19.088Z,0.08
2022-08-28T21:59:21.441Z,0.15
2022-08-28T22:01:26.544Z,0.35
2022-08-28T22:03:29.376Z,0.38
2022-08-28T22:05:30.986Z,0.57
2022-08-28T22:07:32.572Z,1.45
2022-08-28T22:09:34.187Z,0.20
2022-08-28T22:11:35.845Z,0.40
2022-08-28T22:13:37.957Z,0.17
2022-08-28T22:15:41.406Z,0.75
2022-08-28T22:17:42.969Z,0.10
2022-08-28T22:19:46.616Z,0.73
2022-08-28T22:22:06.916Z,1.02
2022-08-28T22:24:09.057Z,18.08
2022-08-28T22:26:13.583Z,20.42
2022-08-28T22:28:15.372Z,21.20
2022-08-28T22:30:17.796Z,21.20
2022-08-28T22:32:22.840Z,21.92
2022-08-28T22:34:24.381Z,22.50
2022-08-28T22:36:29.343Z,22.38
2022-08-28T22:38:31.313Z,22.25
2022-08-28T22:40:33.101Z,22.60
2022-08-28T22:42:34.762Z,22.48
2022-08-28T22:44:39.971Z,23.13
2022-08-28T22:46:41.747Z,24.15
2022-08-28T22:48:43.321Z,25.73
2022-08-28T22:50:46.345Z,26.75
2022-08-28T22:52:49.357Z,27.40
2022-08-28T22:54:52.355Z,28.55
2022-08-28T22:56:54.844Z,28.15
2022-08-28T22:58:56.451Z,29.52
2022-08-28T23:01:01.678Z,29.05
2022-08-28T23:03:03.604Z,28.60
2022-08-28T23:05:05.824Z,28.83
2022-08-28T23:07:07.551Z,27.85
2022-08-28T23:09:09.144Z,27.30
2022-08-28T23:11:11.284Z,26.85
2022-08-28T23:13:14.387Z,24.10
2022-08-28T23:15:18.345Z,23.13
2022-08-28T23:17:19.976Z,22.73
2022-08-28T23:19:21.762Z,23.27
2022-08-28T23:21:26.451Z,22.20
2022-08-28T23:23:28.649Z,22.08
2022-08-28T23:25:30.194Z,21.35
2022-08-28T23:27:36.178Z,22.13
2022-08-28T23:29:38.256Z,22.42
2022-08-28T23:31:40.144Z,22.20
2022-08-28T23:33:41.883Z,22.45
2022-08-28T23:35:43.614Z,21.80
2022-08-28T23:37:48.670Z,23.40
2022-08-28T23:39:53.326Z,22.77
2022-08-28T23:41:56.108Z,23.83
2022-08-28T23:43:57.715Z,22.10
2022-08-28T23:45:59.956Z,23.00
2022-08-28T23:48:01.602Z,24.10
2022-08-28T23:50:06.958Z,22.90
2022-08-28T23:52:08.515Z,23.38
2022-08-28T23:54:11.682Z,25.27
2022-08-28T23:56:13.429Z,25.95
2022-08-28T23:58:15.292Z,25.80
